This is the latest recevied weather packets stored in our database for station/object iz1wiy-3. If no packets are shown the sender has not sent any weather packets the latest 1 day(s).
| Time | Temp. | Humidity | Pressure | Rain* | Wind** | Luminosity | Snow |
|---|---|---|---|---|---|---|---|
| 1778034663 | 16.11° C | 88% | 1009.3 hPa | 3.05 mm | 0.45 m/s, 238° | - | - |
| 1778034603 | 15.56° C | 88% | 1009.3 hPa | 3.05 mm | 0.89 m/s, 244° | - | - |
| 1778034543 | 15.56° C | 89% | 1009.3 hPa | 3.05 mm | 0.89 m/s, 275° | - | - |
| 1778034483 | 15.56° C | 89% | 1009.2 hPa | 3.05 mm | 0.89 m/s, 310° | - | - |
| 1778034423 | 15.56° C | 89% | 1009.4 hPa | 3.05 mm | 0.89 m/s, 323° | - | - |
| 1778034364 | 15.56° C | 89% | 1009.4 hPa | 3.3 mm | 0.89 m/s, 316° | - | - |
| 1778034303 | 15.56° C | 89% | 1009.5 hPa | 3.56 mm | 0.89 m/s, 330° | - | - |
| 1778034244 | 15.56° C | 89% | 1009.5 hPa | 4.06 mm | 0.89 m/s, 335° | - | - |
| 1778034183 | 15.56° C | 89% | 1009.6 hPa | 4.32 mm | 0.89 m/s, 336° | - | - |
| 1778034123 | 15.56° C | 89% | 1009.6 hPa | 4.32 mm | 0.89 m/s, 336° | - | - |
| 1778034063 | 15.56° C | 89% | 1009.5 hPa | 4.32 mm | 0.89 m/s, 336° | - | - |
| 1778034003 | 15° C | 89% | 1009.6 hPa | 4.57 mm | 0.45 m/s, 334° | - | - |
| 1778033943 | 15° C | 89% | 1009.6 hPa | 4.83 mm | 0.45 m/s, 334° | - | - |
| 1778033883 | 15° C | 90% | 1009.6 hPa | 4.83 mm | 0.45 m/s, 335° | - | - |
| 1778033823 | 15° C | 89% | 1009.6 hPa | 4.83 mm | 0.45 m/s, 336° | - | - |
| 1778033763 | 15° C | 89% | 1009.5 hPa | 4.83 mm | 0.45 m/s, 337° | - | - |
| 1778033703 | 15° C | 90% | 1009.6 hPa | 4.83 mm | 0.45 m/s, 339° | - | - |
| 1778033643 | 15° C | 90% | 1009.6 hPa | 4.83 mm | 0 m/s | - | - |
| 1778033583 | 15° C | 90% | 1009.6 hPa | 4.83 mm | 0 m/s | - | - |
| 1778033463 | 15° C | 89% | 1009.6 hPa | 4.57 mm | 0 m/s | - | - |
| 1778033403 | 15° C | 90% | 1009.7 hPa | 4.57 mm | 0 m/s | - | - |
| 1778033343 | 15° C | 90% | 1009.8 hPa | 4.57 mm | 0 m/s | - | - |
| 1778033283 | 15° C | 91% | 1009.8 hPa | 4.57 mm | 0 m/s | - | - |
| 1778033223 | 15° C | 90% | 1009.8 hPa | 4.57 mm | 0 m/s | - | - |
| 1778033163 | 15° C | 90% | 1009.9 hPa | 4.57 mm | 0.45 m/s, 288° | - | - |
* Rain latest hour (hover to see other rain measurements)
** Current wind speed in m/s (hover to see current wind gust speed)